createdAt,value
2023-05-20T00:01:30.112Z,59.70
2023-05-20T00:03:58.608Z,59.70
2023-05-20T00:06:26.615Z,59.70
2023-05-20T00:08:56.239Z,59.70
2023-05-20T00:11:24.035Z,59.70
2023-05-20T00:13:51.918Z,59.70
2023-05-20T00:16:19.703Z,59.70
2023-05-20T00:18:47.532Z,59.80
2023-05-20T00:21:15.386Z,59.80
2023-05-20T00:23:43.281Z,59.80
2023-05-20T00:26:12.394Z,59.80
2023-05-20T00:28:40.299Z,59.80
2023-05-20T00:31:08.103Z,59.80
2023-05-20T00:33:36.258Z,59.80
2023-05-20T00:36:04.171Z,59.80
2023-05-20T00:38:31.924Z,59.80
2023-05-20T00:40:59.693Z,59.80
2023-05-20T00:43:28.794Z,59.80
2023-05-20T00:45:57.068Z,59.90
2023-05-20T00:48:24.960Z,59.90
2023-05-20T00:50:53.327Z,59.90
2023-05-20T00:53:21.784Z,59.80
2023-05-20T00:55:49.872Z,59.90
2023-05-20T00:58:17.633Z,59.90
2023-05-20T01:00:47.016Z,59.90
2023-05-20T01:03:14.934Z,59.90
2023-05-20T01:05:42.827Z,59.90
2023-05-20T01:08:10.796Z,60.00
2023-05-20T01:10:42.961Z,60.00
2023-05-20T01:13:16.189Z,60.00
2023-05-20T01:15:48.477Z,60.00
2023-05-20T01:18:18.414Z,59.90
2023-05-20T01:20:50.877Z,59.90
2023-05-20T01:23:20.028Z,60.00
2023-05-20T01:25:47.779Z,60.00
2023-05-20T01:28:17.882Z,59.90
2023-05-20T01:30:51.704Z,60.00
2023-05-20T01:33:23.480Z,60.10
2023-05-20T01:35:52.152Z,60.00
2023-05-20T01:38:22.598Z,60.00
2023-05-20T01:40:51.391Z,60.00
2023-05-20T01:43:19.444Z,60.00
2023-05-20T01:45:47.258Z,60.00
2023-05-20T01:48:15.130Z,60.00
2023-05-20T01:50:43.235Z,60.10
2023-05-20T01:53:13.204Z,60.00
2023-05-20T01:55:44.214Z,60.00
2023-05-20T01:58:12.430Z,60.10
2023-05-20T02:00:40.333Z,60.10
2023-05-20T02:03:08.330Z,60.10
2023-05-20T02:05:37.424Z,60.20
2023-05-20T02:08:06.538Z,60.10
2023-05-20T02:10:34.330Z,60.10
2023-05-20T02:13:03.432Z,60.10
2023-05-20T02:15:31.348Z,60.20
2023-05-20T02:17:59.229Z,60.10
2023-05-20T02:20:27.152Z,60.10
2023-05-20T02:22:54.990Z,60.20
2023-05-20T02:25:22.786Z,61.00
2023-05-20T02:27:50.568Z,60.20
2023-05-20T02:30:19.778Z,60.20
2023-05-20T02:32:48.023Z,60.20
2023-05-20T02:35:16.435Z,60.20
2023-05-20T02:37:44.852Z,60.20
2023-05-20T02:40:12.941Z,60.20
2023-05-20T02:42:42.129Z,60.30
2023-05-20T02:45:10.879Z,60.20
2023-05-20T02:47:41.601Z,60.30
2023-05-20T02:50:09.836Z,60.30
2023-05-20T02:52:39.837Z,60.30
2023-05-20T02:55:08.543Z,60.30
2023-05-20T02:57:38.188Z,60.30
2023-05-20T03:00:11.420Z,60.30
2023-05-20T03:02:40.650Z,60.30
2023-05-20T03:05:09.619Z,60.30
2023-05-20T03:07:37.786Z,60.30
2023-05-20T03:10:09.288Z,60.40
2023-05-20T03:12:39.853Z,60.40
2023-05-20T03:15:09.124Z,60.40
2023-05-20T03:17:37.789Z,60.40
2023-05-20T03:20:08.905Z,60.40
2023-05-20T03:22:36.779Z,60.40
2023-05-20T03:25:06.055Z,60.40
2023-05-20T03:27:34.308Z,60.40
2023-05-20T03:30:02.397Z,60.40
2023-05-20T03:32:30.609Z,60.50
2023-05-20T03:35:00.002Z,60.50
2023-05-20T03:37:29.100Z,60.50
2023-05-20T03:39:57.171Z,60.50
2023-05-20T03:42:25.719Z,60.50
2023-05-20T03:44:53.599Z,60.50
2023-05-20T03:47:21.597Z,60.50
2023-05-20T03:49:50.109Z,60.50
2023-05-20T03:52:17.892Z,60.50
2023-05-20T03:54:47.048Z,60.50
2023-05-20T03:57:14.812Z,60.50
2023-05-20T03:59:42.673Z,60.50
2023-05-20T04:02:10.992Z,60.60
2023-05-20T04:04:38.924Z,60.50
2023-05-20T04:07:07.688Z,60.60
2023-05-20T04:09:35.612Z,60.60
2023-05-20T04:12:06.970Z,60.60
2023-05-20T04:14:35.673Z,60.60
2023-05-20T04:17:04.644Z,60.60
2023-05-20T04:19:34.731Z,60.60
2023-05-20T04:22:02.463Z,60.60
2023-05-20T04:24:30.246Z,60.60
2023-05-20T04:26:58.027Z,60.60
2023-05-20T04:29:30.000Z,60.60
2023-05-20T04:31:58.709Z,60.70
2023-05-20T04:34:26.772Z,60.60
2023-05-20T04:36:54.753Z,60.60
2023-05-20T04:39:22.722Z,60.60
2023-05-20T04:41:54.922Z,60.60
2023-05-20T04:44:24.683Z,60.60
2023-05-20T04:46:53.852Z,60.60
2023-05-20T04:49:21.700Z,60.60
2023-05-20T04:51:49.967Z,60.60
2023-05-20T04:54:20.219Z,60.60
2023-05-20T04:56:48.037Z,60.60
2023-05-20T04:59:15.821Z,60.60
2023-05-20T05:01:43.762Z,60.60
2023-05-20T05:04:12.957Z,60.60
2023-05-20T05:06:41.480Z,60.60
2023-05-20T05:09:09.716Z,60.60
2023-05-20T05:11:40.171Z,60.60
2023-05-20T05:14:07.942Z,60.70
2023-05-20T05:16:36.613Z,60.70
2023-05-20T05:19:04.456Z,60.70
2023-05-20T05:21:37.342Z,60.60
2023-05-20T05:24:05.344Z,60.70
2023-05-20T05:26:33.159Z,60.70
2023-05-20T05:29:01.084Z,60.70
2023-05-20T05:31:28.896Z,60.70
2023-05-20T05:33:56.662Z,60.70
2023-05-20T05:36:25.744Z,60.70
2023-05-20T05:38:54.851Z,60.70
2023-05-20T05:41:24.000Z,60.70
2023-05-20T05:43:53.160Z,60.70
2023-05-20T05:46:21.237Z,60.70
2023-05-20T05:48:50.837Z,60.70
2023-05-20T05:51:19.468Z,60.70
2023-05-20T05:53:48.900Z,60.70
2023-05-20T05:56:18.359Z,60.70
2023-05-20T05:58:48.196Z,60.70
2023-05-20T06:01:16.810Z,60.70
2023-05-20T06:03:45.183Z,60.70
2023-05-20T06:06:13.277Z,60.70
2023-05-20T06:08:41.059Z,60.70
2023-05-20T06:11:10.012Z,60.70
2023-05-20T06:13:39.388Z,60.70
2023-05-20T06:16:07.331Z,60.80
2023-05-20T06:18:35.109Z,60.80
2023-05-20T06:21:06.048Z,60.80
2023-05-20T06:23:33.814Z,60.80
2023-05-20T06:26:05.771Z,60.80
2023-05-20T06:28:33.620Z,60.80
2023-05-20T06:31:02.793Z,60.80
2023-05-20T06:33:34.145Z,60.80
2023-05-20T06:36:07.465Z,60.80
2023-05-20T06:38:35.300Z,60.90
2023-05-20T06:41:03.444Z,61.10
2023-05-20T06:43:33.476Z,61.60
2023-05-20T06:46:07.749Z,62.70
2023-05-20T06:48:38.889Z,62.10
2023-05-20T06:51:09.335Z,62.30
2023-05-20T06:53:37.316Z,62.50
2023-05-20T06:56:05.395Z,62.60
2023-05-20T06:58:34.140Z,62.70
2023-05-20T07:01:01.924Z,62.70
2023-05-20T07:03:31.333Z,62.80
2023-05-20T07:05:59.468Z,62.80
2023-05-20T07:08:27.414Z,62.90
2023-05-20T07:10:56.984Z,62.90
2023-05-20T07:13:25.973Z,62.90
2023-05-20T07:15:53.888Z,62.90
2023-05-20T07:18:22.480Z,62.90
2023-05-20T07:20:56.792Z,62.90
2023-05-20T07:23:47.855Z,62.90
2023-05-20T07:26:16.792Z,62.90
2023-05-20T07:28:45.590Z,62.80
2023-05-20T07:31:13.429Z,62.70
2023-05-20T07:33:45.452Z,62.70
2023-05-20T07:36:14.860Z,62.70
2023-05-20T07:38:53.176Z,62.70
2023-05-20T07:41:30.868Z,62.60
2023-05-20T07:43:58.962Z,62.60
2023-05-20T07:46:26.793Z,62.70
2023-05-20T07:48:54.885Z,62.60
2023-05-20T07:51:24.281Z,62.60
2023-05-20T07:53:52.255Z,62.50
2023-05-20T07:56:22.344Z,62.50
2023-05-20T07:58:54.508Z,62.60
2023-05-20T08:01:23.658Z,62.60
2023-05-20T08:03:51.772Z,62.60
2023-05-20T08:06:26.735Z,62.60
2023-05-20T08:08:56.089Z,62.50
2023-05-20T08:11:29.590Z,62.50
2023-05-20T08:13:58.079Z,62.40
2023-05-20T08:16:28.876Z,62.40
2023-05-20T08:18:56.749Z,62.30
2023-05-20T08:21:25.908Z,62.20
2023-05-20T08:23:54.023Z,62.00
2023-05-20T08:26:21.957Z,61.90
2023-05-20T08:28:51.361Z,61.80
2023-05-20T08:31:20.113Z,61.80
2023-05-20T08:33:48.031Z,61.70
2023-05-20T08:36:16.049Z,61.60
2023-05-20T08:38:46.494Z,61.70
2023-05-20T08:41:14.266Z,61.80
2023-05-20T08:43:45.467Z,61.80
2023-05-20T08:46:15.107Z,62.00
2023-05-20T08:48:44.373Z,62.10
2023-05-20T08:51:12.655Z,62.20
2023-05-20T08:53:40.974Z,62.40
2023-05-20T08:56:11.425Z,62.60
2023-05-20T08:58:39.220Z,62.60
2023-05-20T09:01:08.306Z,62.60
2023-05-20T09:03:36.101Z,62.70
2023-05-20T09:06:08.553Z,62.80
2023-05-20T09:08:37.158Z,63.10
2023-05-20T09:11:04.945Z,63.30
2023-05-20T09:13:34.189Z,63.40
2023-05-20T09:16:03.884Z,63.50
2023-05-20T09:18:31.935Z,63.40
2023-05-20T09:21:05.638Z,63.40
2023-05-20T09:23:33.691Z,63.50
2023-05-20T09:26:02.556Z,63.40
2023-05-20T09:28:30.348Z,64.10
2023-05-20T09:31:00.831Z,64.00
2023-05-20T09:33:31.740Z,63.90
2023-05-20T09:36:04.983Z,63.80
2023-05-20T09:38:38.048Z,63.80
2023-05-20T09:41:08.460Z,63.70
2023-05-20T09:43:37.174Z,63.60
2023-05-20T09:46:06.579Z,63.50
2023-05-20T09:48:36.243Z,63.40
2023-05-20T09:51:05.174Z,63.20
2023-05-20T09:53:32.932Z,63.30
2023-05-20T09:56:01.103Z,63.20
2023-05-20T09:58:30.509Z,63.30
2023-05-20T10:00:58.502Z,63.20
2023-05-20T10:03:28.494Z,63.10
2023-05-20T10:06:17.283Z,63.20
2023-05-20T10:08:59.281Z,63.10
2023-05-20T10:11:39.700Z,63.10
2023-05-20T10:14:36.078Z,63.10
2023-05-20T10:17:10.615Z,63.10
2023-05-20T10:19:39.918Z,63.30
2023-05-20T10:22:09.429Z,63.40
2023-05-20T10:24:40.911Z,63.40
2023-05-20T10:27:10.506Z,63.60
2023-05-20T10:32:27.289Z,63.50
2023-05-20T10:35:01.024Z,63.50
2023-05-20T10:37:31.332Z,63.50
2023-05-20T10:40:08.475Z,64.30
2023-05-20T10:42:36.425Z,63.50
2023-05-20T10:45:04.768Z,63.60
2023-05-20T10:47:32.933Z,63.60
2023-05-20T10:50:04.702Z,63.60
2023-05-20T10:52:35.033Z,63.60
2023-05-20T10:55:03.443Z,63.70
2023-05-20T10:57:32.181Z,63.50
2023-05-20T11:00:01.013Z,63.50
2023-05-20T11:02:29.363Z,63.70
2023-05-20T11:04:58.089Z,63.70
2023-05-20T11:07:28.756Z,63.90
2023-05-20T11:09:56.536Z,64.20
2023-05-20T11:12:25.309Z,64.40
2023-05-20T11:14:53.332Z,64.80
2023-05-20T11:17:21.305Z,65.20
2023-05-20T11:19:49.596Z,65.40
2023-05-20T11:22:17.391Z,65.70
2023-05-20T11:24:47.219Z,65.90
2023-05-20T11:27:15.011Z,65.80
2023-05-20T11:29:43.523Z,65.80
2023-05-20T11:32:11.477Z,65.60
2023-05-20T11:34:40.181Z,65.40
2023-05-20T11:37:11.969Z,65.40
2023-05-20T11:39:40.286Z,65.30
2023-05-20T11:42:09.438Z,65.10
2023-05-20T11:44:38.235Z,64.90
2023-05-20T11:47:06.557Z,64.90
2023-05-20T11:49:40.835Z,64.70
2023-05-20T11:52:10.281Z,64.60
2023-05-20T11:54:38.040Z,64.60
2023-05-20T11:57:07.217Z,64.70
2023-05-20T11:59:36.794Z,64.80
2023-05-20T12:02:04.566Z,64.70
2023-05-20T12:04:32.558Z,64.60
2023-05-20T12:07:01.020Z,64.60
2023-05-20T12:09:28.786Z,64.50
2023-05-20T12:11:57.033Z,64.50
2023-05-20T12:14:25.007Z,64.40
2023-05-20T12:16:54.153Z,64.30
2023-05-20T12:19:21.910Z,64.30
2023-05-20T12:21:49.706Z,64.20
2023-05-20T12:24:17.447Z,64.10
2023-05-20T12:26:45.207Z,64.20
2023-05-20T12:29:13.253Z,64.10
2023-05-20T12:31:41.169Z,64.10
2023-05-20T12:34:10.332Z,64.00
2023-05-20T12:36:38.626Z,64.00
2023-05-20T12:39:07.349Z,64.00
2023-05-20T12:41:35.138Z,64.00
2023-05-20T12:44:03.064Z,64.00
2023-05-20T12:46:31.037Z,64.00
2023-05-20T12:48:59.225Z,64.00
2023-05-20T12:51:28.325Z,63.90
2023-05-20T12:53:56.274Z,63.90
2023-05-20T12:56:25.260Z,63.80
2023-05-20T12:58:53.077Z,63.80
2023-05-20T13:01:20.894Z,63.70
2023-05-20T13:03:52.834Z,63.70
2023-05-20T13:06:20.582Z,63.70
2023-05-20T13:08:49.660Z,63.70
2023-05-20T13:11:17.473Z,63.70
2023-05-20T13:13:45.300Z,63.70
2023-05-20T13:16:13.122Z,63.90
2023-05-20T13:18:40.882Z,63.80
2023-05-20T13:21:08.660Z,63.80
2023-05-20T13:23:36.929Z,63.70
2023-05-20T13:26:06.140Z,63.70
2023-05-20T13:28:33.903Z,63.70
2023-05-20T13:31:03.063Z,63.70
2023-05-20T13:33:30.924Z,63.70
2023-05-20T13:35:58.735Z,63.70
2023-05-20T13:38:26.606Z,63.80
2023-05-20T13:40:54.408Z,63.70
2023-05-20T13:43:23.494Z,63.70
2023-05-20T13:45:51.263Z,63.70
2023-05-20T13:48:19.176Z,63.70
2023-05-20T13:50:46.957Z,63.70
2023-05-20T13:53:14.761Z,63.70
2023-05-20T13:55:42.788Z,63.70
2023-05-20T13:58:10.568Z,63.70
2023-05-20T14:00:40.062Z,63.70
2023-05-20T14:03:09.156Z,63.60
2023-05-20T14:05:37.221Z,63.60
2023-05-20T14:08:05.468Z,63.60
2023-05-20T14:10:33.376Z,63.50
2023-05-20T14:13:02.047Z,63.50
2023-05-20T14:15:30.492Z,63.50
2023-05-20T14:17:59.773Z,63.50
2023-05-20T14:20:27.548Z,63.50
2023-05-20T14:22:55.287Z,63.50
2023-05-20T14:25:23.117Z,63.50
2023-05-20T14:27:50.961Z,63.50
2023-05-20T14:30:18.742Z,63.60
2023-05-20T14:32:46.503Z,63.50
2023-05-20T14:35:16.369Z,63.60
2023-05-20T14:37:44.112Z,63.60
2023-05-20T14:40:12.799Z,63.60
2023-05-20T14:42:40.916Z,63.50
2023-05-20T14:45:09.927Z,63.60
2023-05-20T14:47:39.931Z,63.50
2023-05-20T14:50:08.059Z,63.50
2023-05-20T14:52:37.112Z,63.60
2023-05-20T14:55:05.570Z,63.60
2023-05-20T14:57:33.340Z,63.60
2023-05-20T15:00:01.122Z,63.60
2023-05-20T15:02:29.000Z,63.60
2023-05-20T15:04:56.831Z,63.60
2023-05-20T15:07:24.568Z,63.60
2023-05-20T15:09:53.653Z,63.70
2023-05-20T15:12:21.409Z,63.70
2023-05-20T15:14:49.123Z,63.70
2023-05-20T15:17:17.038Z,63.80
2023-05-20T15:19:44.890Z,64.00
2023-05-20T15:22:12.750Z,64.10
2023-05-20T15:24:40.507Z,64.10
2023-05-20T15:27:09.623Z,64.10
2023-05-20T15:29:38.853Z,64.20
2023-05-20T15:32:08.149Z,64.30
2023-05-20T15:34:36.020Z,64.30
2023-05-20T15:37:03.900Z,64.40
2023-05-20T15:39:31.654Z,64.60
2023-05-20T15:42:02.001Z,64.60
2023-05-20T15:44:31.530Z,64.90
2023-05-20T15:46:59.334Z,65.00
2023-05-20T15:49:27.122Z,65.30
2023-05-20T15:52:03.062Z,65.50
2023-05-20T15:54:31.736Z,65.60
2023-05-20T15:56:59.577Z,65.70
2023-05-20T15:59:27.400Z,65.90
2023-05-20T16:01:56.662Z,66.20
2023-05-20T16:04:24.588Z,66.30
2023-05-20T16:06:52.446Z,66.40
2023-05-20T16:09:20.192Z,66.60
2023-05-20T16:11:48.028Z,66.50
2023-05-20T16:14:15.812Z,66.30
2023-05-20T16:16:43.602Z,66.10
2023-05-20T16:19:12.750Z,65.90
2023-05-20T16:21:40.596Z,65.90
2023-05-20T16:24:08.313Z,65.80
2023-05-20T16:26:36.052Z,65.80
2023-05-20T16:29:03.804Z,65.70
2023-05-20T16:31:31.577Z,65.70
2023-05-20T16:33:59.416Z,65.60
2023-05-20T16:36:28.517Z,65.60
2023-05-20T16:38:56.294Z,65.60
2023-05-20T16:41:24.012Z,65.60
2023-05-20T16:43:51.758Z,65.50
2023-05-20T16:46:19.647Z,65.60
2023-05-20T16:48:47.532Z,65.50
2023-05-20T16:51:15.289Z,65.50
2023-05-20T16:53:44.350Z,65.50
2023-05-20T16:56:12.135Z,65.60
2023-05-20T16:58:39.904Z,65.60
2023-05-20T17:01:08.196Z,65.50
2023-05-20T17:03:36.462Z,65.50
2023-05-20T17:06:04.260Z,65.50
2023-05-20T17:08:32.057Z,65.60
2023-05-20T17:11:01.740Z,65.60
2023-05-20T17:13:29.503Z,65.60
2023-05-20T17:15:57.348Z,65.60
2023-05-20T17:18:25.081Z,65.70
2023-05-20T17:20:53.035Z,65.70
2023-05-20T17:23:20.836Z,65.80
2023-05-20T17:25:48.593Z,65.80
2023-05-20T17:28:17.653Z,65.90
2023-05-20T17:30:45.521Z,66.00
2023-05-20T17:33:13.310Z,66.10
2023-05-20T17:35:41.169Z,66.10
2023-05-20T17:38:09.150Z,66.20
2023-05-20T17:40:37.090Z,66.10
2023-05-20T17:43:05.379Z,66.10
2023-05-20T17:45:34.463Z,66.10
2023-05-20T17:48:07.890Z,66.10
2023-05-20T17:50:37.820Z,66.10
2023-05-20T17:53:05.985Z,66.10
2023-05-20T17:55:36.200Z,66.10
2023-05-20T17:58:04.164Z,66.10
2023-05-20T18:00:34.333Z,66.10
2023-05-20T18:03:03.719Z,66.10
2023-05-20T18:05:31.519Z,66.10
2023-05-20T18:07:59.250Z,66.10
2023-05-20T18:10:26.985Z,66.20
2023-05-20T18:12:55.162Z,66.20
2023-05-20T18:15:22.984Z,66.20
2023-05-20T18:17:51.064Z,66.20
2023-05-20T18:20:20.560Z,66.20
2023-05-20T18:22:50.397Z,66.30
2023-05-20T18:25:18.532Z,66.30
2023-05-20T18:27:46.289Z,66.40
2023-05-20T18:30:14.123Z,66.40
2023-05-20T18:32:41.897Z,66.50
2023-05-20T18:35:10.111Z,66.50
2023-05-20T18:37:39.193Z,66.60
2023-05-20T18:40:08.227Z,66.70
2023-05-20T18:42:36.337Z,66.70
2023-05-20T18:45:04.280Z,66.70
2023-05-20T18:47:32.266Z,66.70
2023-05-20T18:50:00.111Z,66.80
2023-05-20T18:52:27.968Z,66.80
2023-05-20T18:54:57.038Z,66.90
2023-05-20T18:57:24.807Z,66.90
2023-05-20T18:59:52.559Z,66.90
2023-05-20T19:02:20.442Z,67.00
2023-05-20T19:04:48.340Z,67.00
2023-05-20T19:07:16.317Z,67.10
2023-05-20T19:09:44.108Z,67.10
2023-05-20T19:12:13.181Z,67.20
2023-05-20T19:14:40.927Z,67.20
2023-05-20T19:17:08.782Z,67.20
2023-05-20T19:19:36.513Z,67.30
2023-05-20T19:22:04.271Z,67.30
2023-05-20T19:24:32.259Z,67.40
2023-05-20T19:27:00.179Z,67.40
2023-05-20T19:29:29.296Z,67.50
2023-05-20T19:31:57.824Z,67.50
2023-05-20T19:34:26.103Z,67.60
2023-05-20T19:36:56.622Z,67.60
2023-05-20T19:39:24.410Z,67.70
2023-05-20T19:41:52.913Z,67.80
2023-05-20T19:44:20.773Z,67.80
2023-05-20T19:46:49.874Z,67.90
2023-05-20T19:49:17.698Z,67.90
2023-05-20T19:51:45.668Z,67.90
2023-05-20T19:54:13.787Z,67.90
2023-05-20T19:56:41.620Z,67.90
2023-05-20T19:59:09.362Z,67.80
2023-05-20T20:01:37.161Z,67.80
2023-05-20T20:04:06.375Z,67.70
2023-05-20T20:06:34.147Z,67.70
2023-05-20T20:09:02.001Z,67.50
2023-05-20T20:11:29.777Z,67.50
2023-05-20T20:13:58.383Z,68.30
2023-05-20T20:16:26.803Z,67.40
2023-05-20T20:18:54.959Z,67.30
2023-05-20T20:21:25.936Z,67.30
2023-05-20T20:23:53.734Z,67.30
2023-05-20T20:26:23.524Z,67.20
2023-05-20T20:28:51.445Z,67.20
2023-05-20T20:31:19.269Z,67.10
2023-05-20T20:33:47.451Z,67.10
2023-05-20T20:36:15.209Z,67.00
2023-05-20T20:38:46.676Z,67.00
2023-05-20T20:41:16.097Z,67.00
2023-05-20T20:43:44.727Z,67.00
2023-05-20T20:46:14.656Z,67.00
2023-05-20T20:48:45.509Z,66.90
2023-05-20T20:51:14.156Z,66.90
2023-05-20T20:53:42.146Z,66.90
2023-05-20T20:56:11.424Z,66.90
2023-05-20T20:58:39.985Z,66.90
2023-05-20T21:01:09.801Z,66.90
2023-05-20T21:03:39.891Z,66.80
2023-05-20T21:06:08.118Z,66.80
2023-05-20T21:08:36.038Z,66.80
2023-05-20T21:11:03.839Z,66.80
2023-05-20T21:13:32.926Z,66.80
2023-05-20T21:16:00.681Z,66.80
2023-05-20T21:18:28.414Z,66.80
2023-05-20T21:20:56.543Z,66.70
2023-05-20T21:23:24.547Z,66.80
2023-05-20T21:25:52.350Z,66.70
2023-05-20T21:28:20.117Z,66.70
2023-05-20T21:30:49.209Z,66.70
2023-05-20T21:33:16.969Z,66.70
2023-05-20T21:35:44.704Z,66.70
2023-05-20T21:38:13.480Z,67.50
2023-05-20T21:40:41.286Z,66.60
2023-05-20T21:43:09.108Z,66.60
2023-05-20T21:45:37.019Z,66.60
2023-05-20T21:48:07.166Z,66.60
2023-05-20T21:50:34.952Z,66.60
2023-05-20T21:53:02.692Z,66.60
2023-05-20T21:55:30.463Z,66.60
2023-05-20T21:57:58.227Z,66.60
2023-05-20T22:00:26.041Z,66.50
2023-05-20T22:02:53.889Z,66.50
2023-05-20T22:05:23.006Z,66.50
2023-05-20T22:07:51.408Z,66.50
2023-05-20T22:10:20.810Z,66.50
2023-05-20T22:12:50.665Z,66.50
2023-05-20T22:15:18.518Z,67.40
2023-05-20T22:17:47.404Z,66.50
2023-05-20T22:20:15.272Z,66.50
2023-05-20T22:22:44.364Z,66.50
2023-05-20T22:25:12.520Z,66.50
2023-05-20T22:27:42.840Z,66.70
2023-05-20T22:30:11.763Z,66.50
2023-05-20T22:32:40.270Z,66.50
2023-05-20T22:35:09.035Z,66.50
2023-05-20T22:37:36.867Z,66.50
2023-05-20T22:40:07.421Z,66.50
2023-05-20T22:42:35.135Z,66.40
2023-05-20T22:45:02.873Z,66.40
2023-05-20T22:47:30.986Z,66.40
2023-05-20T22:50:02.145Z,66.40
2023-05-20T22:52:30.582Z,66.40
2023-05-20T22:54:58.611Z,66.40
2023-05-20T22:57:28.944Z,66.40
2023-05-20T22:59:56.788Z,66.40
2023-05-20T23:02:24.549Z,66.40
2023-05-20T23:04:52.425Z,66.40
2023-05-20T23:07:20.226Z,66.40
2023-05-20T23:09:48.454Z,66.40
2023-05-20T23:12:16.533Z,66.40
2023-05-20T23:14:45.598Z,66.40
2023-05-20T23:17:13.355Z,66.40
2023-05-20T23:19:41.281Z,66.40
2023-05-20T23:22:09.016Z,66.30
2023-05-20T23:24:36.816Z,66.30
2023-05-20T23:27:06.482Z,66.30
2023-05-20T23:29:34.229Z,66.30
2023-05-20T23:32:03.517Z,66.30
2023-05-20T23:34:31.639Z,66.30
2023-05-20T23:36:59.482Z,66.30
2023-05-20T23:39:27.283Z,66.30
2023-05-20T23:41:55.021Z,66.30
2023-05-20T23:44:22.739Z,66.40
2023-05-20T23:46:51.011Z,66.30
2023-05-20T23:49:24.241Z,66.30
2023-05-20T23:51:52.775Z,66.30
2023-05-20T23:54:20.661Z,67.10
2023-05-20T23:56:48.755Z,66.30
2023-05-20T23:59:16.917Z,66.30
